createdAt,value
2018-05-27T00:01:50.995Z,9.93
2018-05-27T00:04:18.703Z,9.57
2018-05-27T00:06:47.413Z,9.73
2018-05-27T00:09:15.058Z,10.67
2018-05-27T00:11:43.498Z,10.23
2018-05-27T00:14:13.641Z,9.93
2018-05-27T00:16:42.061Z,9.63
2018-05-27T00:19:14.092Z,10.57
2018-05-27T00:21:43.467Z,10.30
2018-05-27T00:24:13.776Z,9.80
2018-05-27T00:26:41.467Z,9.83
2018-05-27T00:29:09.107Z,10.07
2018-05-27T00:31:36.806Z,10.43
2018-05-27T00:34:04.504Z,10.03
2018-05-27T00:36:32.146Z,9.50
2018-05-27T00:39:00.617Z,10.47
2018-05-27T00:41:28.301Z,9.70
2018-05-27T00:44:08.254Z,9.30
2018-05-27T00:46:36.737Z,10.07
2018-05-27T00:49:04.405Z,10.67
2018-05-27T00:51:32.882Z,10.80
2018-05-27T00:54:00.609Z,10.67
2018-05-27T00:56:28.242Z,10.67
2018-05-27T00:58:55.955Z,11.10
2018-05-27T01:01:23.658Z,10.63
2018-05-27T01:03:52.100Z,10.37
2018-05-27T01:06:19.793Z,9.93
2018-05-27T01:08:47.441Z,9.40
2018-05-27T01:11:15.845Z,10.17
2018-05-27T01:13:44.294Z,10.63
2018-05-27T01:16:11.986Z,10.03
2018-05-27T01:18:39.647Z,10.10
2018-05-27T01:21:07.346Z,10.17
2018-05-27T01:23:35.049Z,9.73
2018-05-27T01:26:02.698Z,10.60
2018-05-27T01:28:31.174Z,10.33
2018-05-27T01:30:58.829Z,9.97
2018-05-27T01:33:26.498Z,10.77
2018-05-27T01:35:54.178Z,10.83
2018-05-27T01:38:21.851Z,10.90
2018-05-27T01:40:49.502Z,10.20
2018-05-27T01:43:17.170Z,9.97
2018-05-27T01:45:45.629Z,10.40
2018-05-27T01:48:13.284Z,9.97
2018-05-27T01:50:40.970Z,10.23
2018-05-27T01:53:08.639Z,11.57
2018-05-27T01:55:36.286Z,10.50
2018-05-27T01:58:03.989Z,10.70
2018-05-27T02:00:31.656Z,10.67
2018-05-27T02:02:59.314Z,10.70
2018-05-27T02:05:26.996Z,11.47
2018-05-27T02:07:54.692Z,11.20
2018-05-27T02:10:23.116Z,11.50
2018-05-27T02:12:50.803Z,11.53
2018-05-27T02:15:19.220Z,11.27
2018-05-27T02:17:46.866Z,10.87
2018-05-27T02:20:14.541Z,11.07
2018-05-27T02:22:42.207Z,10.83
2018-05-27T02:25:09.873Z,10.80
2018-05-27T02:27:37.512Z,11.07
2018-05-27T02:30:05.210Z,10.77
2018-05-27T02:32:32.857Z,10.33
2018-05-27T02:35:00.520Z,10.57
2018-05-27T02:37:28.186Z,9.90
2018-05-27T02:39:56.604Z,10.63
2018-05-27T02:42:24.270Z,10.20
2018-05-27T02:44:52.882Z,10.53
2018-05-27T02:47:20.551Z,9.90
2018-05-27T02:49:48.199Z,10.70
2018-05-27T02:52:15.879Z,10.97
2018-05-27T02:54:43.537Z,11.53
2018-05-27T02:57:11.962Z,11.17
2018-05-27T02:59:39.695Z,9.50
2018-05-27T03:02:07.354Z,10.67
2018-05-27T03:04:35.018Z,10.87
2018-05-27T03:07:02.724Z,10.47
2018-05-27T03:09:30.382Z,10.40
2018-05-27T03:11:58.812Z,10.17
2018-05-27T03:14:26.511Z,10.57
2018-05-27T03:16:54.150Z,11.23
2018-05-27T03:19:22.614Z,10.37
2018-05-27T03:21:50.266Z,11.33
2018-05-27T03:24:18.678Z,11.30
2018-05-27T03:26:46.391Z,11.03
2018-05-27T03:29:14.078Z,10.53
2018-05-27T03:31:41.744Z,10.33
2018-05-27T03:34:09.382Z,9.70
2018-05-27T03:36:37.076Z,10.17
2018-05-27T03:39:04.763Z,10.60
2018-05-27T03:41:32.442Z,10.27
2018-05-27T03:44:00.153Z,11.43
2018-05-27T03:46:27.791Z,10.60
2018-05-27T03:48:55.473Z,10.10
2018-05-27T03:51:23.178Z,10.27
2018-05-27T03:53:50.824Z,10.67
2018-05-27T03:56:18.543Z,9.90
2018-05-27T03:58:46.191Z,9.50
2018-05-27T04:01:14.593Z,10.60
2018-05-27T04:03:43.073Z,10.13
2018-05-27T04:06:22.621Z,10.13
2018-05-27T04:08:50.305Z,11.50
2018-05-27T04:11:17.965Z,13.20
2018-05-27T04:13:45.599Z,13.80
2018-05-27T04:16:13.282Z,12.67
2018-05-27T04:18:40.981Z,12.10
2018-05-27T04:21:08.629Z,12.60
2018-05-27T04:23:36.323Z,12.03
2018-05-27T04:26:04.018Z,12.17
2018-05-27T04:28:31.745Z,11.13
2018-05-27T04:31:00.249Z,11.77
2018-05-27T04:33:28.711Z,11.57
2018-05-27T04:35:56.365Z,12.07
2018-05-27T04:38:24.042Z,11.23
2018-05-27T04:40:51.701Z,11.00
2018-05-27T04:43:19.349Z,10.93
2018-05-27T04:48:57.842Z,10.93
2018-05-27T04:51:25.505Z,11.03
2018-05-27T04:53:53.190Z,10.73
2018-05-27T04:56:24.869Z,10.67
2018-05-27T04:58:53.887Z,10.63
2018-05-27T05:01:23.053Z,11.00
2018-05-27T05:03:50.901Z,10.80
2018-05-27T05:06:18.606Z,11.87
2018-05-27T05:08:46.293Z,13.97
2018-05-27T05:11:13.910Z,13.00
2018-05-27T05:13:41.613Z,13.37
2018-05-27T05:16:10.081Z,14.77
2018-05-27T05:18:37.929Z,14.53
2018-05-27T05:21:05.605Z,13.33
2018-05-27T05:23:34.050Z,14.17
2018-05-27T05:26:01.717Z,13.00
2018-05-27T05:28:29.411Z,12.23
2018-05-27T05:30:57.114Z,12.23
2018-05-27T05:33:24.770Z,12.23
2018-05-27T05:35:52.457Z,12.33
2018-05-27T05:38:20.889Z,12.90
2018-05-27T05:40:50.605Z,13.93
2018-05-27T05:43:19.257Z,12.03
2018-05-27T05:51:56.841Z,12.10
2018-05-27T05:54:25.307Z,11.43
2018-05-27T05:56:52.994Z,11.77
2018-05-27T05:59:20.634Z,12.00
2018-05-27T06:01:49.967Z,11.80
2018-05-27T06:04:18.425Z,11.57
2018-05-27T06:06:46.066Z,11.73
2018-05-27T06:09:16.543Z,11.37
2018-05-27T06:11:44.266Z,11.27
2018-05-27T06:14:11.925Z,11.30
2018-05-27T06:16:39.593Z,11.37
2018-05-27T06:19:07.438Z,10.83
2018-05-27T06:21:35.902Z,11.30
2018-05-27T06:24:03.574Z,10.80
2018-05-27T06:26:31.220Z,9.67
2018-05-27T06:28:58.894Z,9.80
2018-05-27T06:31:27.438Z,9.00
2018-05-27T06:33:55.868Z,8.90
2018-05-27T06:36:23.513Z,8.97
2018-05-27T06:38:51.160Z,8.57
2018-05-27T06:41:18.830Z,8.63
2018-05-27T06:43:46.450Z,8.97
2018-05-27T06:46:14.118Z,8.67
2018-05-27T06:48:41.791Z,8.60
2018-05-27T06:51:09.457Z,8.23
2018-05-27T06:53:37.918Z,8.13
2018-05-27T06:56:05.624Z,8.27
2018-05-27T06:58:34.046Z,8.07
2018-05-27T07:01:02.502Z,9.20
2018-05-27T07:03:30.200Z,8.43
2018-05-27T07:05:57.883Z,8.37
2018-05-27T07:08:25.569Z,7.90
2018-05-27T07:10:53.247Z,8.83
2018-05-27T07:13:20.873Z,8.30
2018-05-27T07:15:48.565Z,8.17
2018-05-27T07:18:16.225Z,8.70
2018-05-27T07:20:43.886Z,8.87
2018-05-27T07:23:11.538Z,8.93
2018-05-27T07:25:39.968Z,8.67
2018-05-27T07:28:07.653Z,9.27
2018-05-27T07:30:36.098Z,8.27
2018-05-27T07:33:03.903Z,9.00
2018-05-27T07:35:31.570Z,8.67
2018-05-27T07:37:59.234Z,9.57
2018-05-27T07:40:27.669Z,9.90
2018-05-27T07:42:55.317Z,9.57
2018-05-27T07:45:23.790Z,9.00
2018-05-27T07:47:51.694Z,9.70
2018-05-27T07:50:19.340Z,8.83
2018-05-27T07:52:47.017Z,9.10
2018-05-27T07:55:14.700Z,9.30
2018-05-27T07:57:42.316Z,9.50
2018-05-27T08:00:10.031Z,9.10
2018-05-27T08:02:37.687Z,9.20
2018-05-27T08:08:18.692Z,9.07
2018-05-27T08:10:46.467Z,9.50
2018-05-27T08:13:14.151Z,8.53
2018-05-27T08:15:43.334Z,8.87
2018-05-27T08:18:11.363Z,8.60
2018-05-27T08:20:39.050Z,8.30
2018-05-27T08:23:07.576Z,8.73
2018-05-27T08:25:35.243Z,8.77
2018-05-27T08:28:02.947Z,9.23
2018-05-27T08:30:30.648Z,9.27
2018-05-27T08:32:59.112Z,9.50
2018-05-27T08:35:26.800Z,8.87
2018-05-27T08:37:55.221Z,8.30
2018-05-27T08:40:22.923Z,7.53
2018-05-27T08:42:50.626Z,7.53
2018-05-27T08:45:18.245Z,7.97
2018-05-27T08:47:45.933Z,7.40
2018-05-27T08:50:13.619Z,7.20
2018-05-27T08:52:41.258Z,7.67
2018-05-27T08:55:09.699Z,7.33
2018-05-27T08:57:37.349Z,6.10
2018-05-27T09:00:05.791Z,6.80
2018-05-27T09:02:33.520Z,7.20
2018-05-27T09:05:01.190Z,7.33
2018-05-27T09:07:28.854Z,6.20
2018-05-27T09:09:56.517Z,6.33
2018-05-27T09:12:24.197Z,6.80
2018-05-27T09:14:51.859Z,7.10
2018-05-27T09:17:20.356Z,6.83
2018-05-27T09:19:48.042Z,6.97
2018-05-27T09:22:15.686Z,6.80
2018-05-27T09:24:43.392Z,6.60
2018-05-27T09:27:11.064Z,6.40
2018-05-27T09:29:38.716Z,6.90
2018-05-27T09:32:07.188Z,7.70
2018-05-27T09:34:34.835Z,6.77
2018-05-27T09:37:02.760Z,7.20
2018-05-27T09:39:30.442Z,7.23
2018-05-27T09:41:58.134Z,7.00
2018-05-27T09:44:25.832Z,7.00
2018-05-27T09:46:53.553Z,7.47
2018-05-27T09:49:22.001Z,6.43
2018-05-27T09:51:49.654Z,7.00
2018-05-27T09:54:18.085Z,7.03
2018-05-27T09:56:45.798Z,6.57
2018-05-27T09:59:13.440Z,7.37
2018-05-27T10:01:41.127Z,7.27
2018-05-27T10:04:08.795Z,7.60
2018-05-27T10:06:37.174Z,7.43
2018-05-27T10:09:05.676Z,6.73
2018-05-27T10:11:33.372Z,7.30
2018-05-27T10:14:02.099Z,6.90
2018-05-27T10:16:29.858Z,6.67
2018-05-27T10:18:58.462Z,6.80
2018-05-27T10:21:26.880Z,7.00
2018-05-27T10:23:54.570Z,6.40
2018-05-27T10:26:22.228Z,6.03
2018-05-27T10:28:49.869Z,6.67
2018-05-27T10:31:17.566Z,6.30
2018-05-27T10:33:45.264Z,6.17
2018-05-27T10:36:13.679Z,6.20
2018-05-27T10:38:42.108Z,6.10
2018-05-27T10:41:09.811Z,6.47
2018-05-27T10:43:37.455Z,5.97
2018-05-27T10:46:06.010Z,6.63
2018-05-27T10:48:33.666Z,5.87
2018-05-27T10:51:01.313Z,6.30
2018-05-27T10:53:28.978Z,7.60
2018-05-27T10:55:56.656Z,11.40
2018-05-27T10:58:24.298Z,7.67
2018-05-27T11:00:52.719Z,7.80
2018-05-27T11:03:20.490Z,7.13
2018-05-27T11:05:48.251Z,7.50
2018-05-27T11:08:17.782Z,6.87
2018-05-27T11:10:45.449Z,6.93
2018-05-27T11:13:13.103Z,11.20
2018-05-27T11:15:40.753Z,7.00
2018-05-27T11:18:08.458Z,6.70
2018-05-27T11:20:36.857Z,6.70
2018-05-27T11:23:06.057Z,6.80
2018-05-27T11:25:33.720Z,7.00
2018-05-27T11:28:10.233Z,6.47
2018-05-27T11:30:38.632Z,7.43
2018-05-27T11:33:06.343Z,7.40
2018-05-27T11:35:34.084Z,7.70
2018-05-27T11:38:01.768Z,6.80
2018-05-27T11:40:29.443Z,7.20
2018-05-27T11:42:58.578Z,7.10
2018-05-27T11:45:26.477Z,7.33
2018-05-27T11:47:54.143Z,7.23
2018-05-27T11:50:21.818Z,6.50
2018-05-27T11:52:49.498Z,6.90
2018-05-27T11:55:18.223Z,6.83
2018-05-27T11:57:45.911Z,7.40
2018-05-27T12:00:17.524Z,6.93
2018-05-27T12:02:47.095Z,6.57
2018-05-27T12:05:14.778Z,6.53
2018-05-27T12:07:43.199Z,6.70
2018-05-27T12:10:11.668Z,7.00
2018-05-27T12:15:45.541Z,6.63
2018-05-27T12:18:13.193Z,6.53
2018-05-27T12:20:41.669Z,6.60
2018-05-27T12:23:09.914Z,7.47
2018-05-27T12:25:37.626Z,7.30
2018-05-27T12:28:06.006Z,5.80
2018-05-27T12:30:33.699Z,6.53
2018-05-27T12:33:01.523Z,6.60
2018-05-27T12:35:29.213Z,6.07
2018-05-27T12:37:57.648Z,6.83
2018-05-27T12:40:25.582Z,6.47
2018-05-27T12:42:53.347Z,9.40
2018-05-27T12:45:21.016Z,6.33
2018-05-27T12:50:56.975Z,6.27
2018-05-27T12:53:25.403Z,6.20
2018-05-27T12:55:53.361Z,6.20
2018-05-27T12:58:21.012Z,5.90
2018-05-27T13:00:48.685Z,6.20
2018-05-27T13:03:16.326Z,6.07
2018-05-27T13:05:44.007Z,5.77
2018-05-27T13:08:11.699Z,6.20
2018-05-27T13:10:40.106Z,5.75
2018-05-27T13:13:07.775Z,5.90
2018-05-27T13:15:36.214Z,5.43
2018-05-27T13:18:03.897Z,5.67
2018-05-27T13:20:35.822Z,6.30
2018-05-27T13:23:04.127Z,6.35
2018-05-27T13:25:31.794Z,5.93
2018-05-27T13:28:00.024Z,5.90
2018-05-27T13:30:28.059Z,5.93
2018-05-27T13:32:55.701Z,6.00
2018-05-27T13:35:23.362Z,6.30
2018-05-27T13:37:51.803Z,6.30
2018-05-27T13:40:20.595Z,5.97
2018-05-27T13:42:48.254Z,6.80
2018-05-27T13:45:15.931Z,5.95
2018-05-27T13:47:43.582Z,5.35
2018-05-27T13:50:11.251Z,5.37
2018-05-27T13:52:38.926Z,4.90
2018-05-27T13:55:07.325Z,4.68
2018-05-27T13:57:35.786Z,5.18
2018-05-27T14:00:18.777Z,4.85
2018-05-27T14:02:46.437Z,4.90
2018-05-27T14:05:14.162Z,4.30
2018-05-27T14:07:42.603Z,4.78
2018-05-27T14:10:10.339Z,4.93
2018-05-27T14:12:38.003Z,4.75
2018-05-27T14:15:05.927Z,5.03
2018-05-27T14:17:33.601Z,5.00
2018-05-27T14:20:01.255Z,5.00
2018-05-27T14:22:28.913Z,5.35
2018-05-27T14:24:56.571Z,4.95
2018-05-27T14:27:24.251Z,5.18
2018-05-27T14:29:51.904Z,5.12
2018-05-27T14:32:19.579Z,5.12
2018-05-27T14:34:48.945Z,4.47
2018-05-27T14:37:16.610Z,4.50
2018-05-27T14:39:45.575Z,5.10
2018-05-27T14:42:13.262Z,4.87
2018-05-27T14:44:40.908Z,4.62
2018-05-27T14:47:09.344Z,4.90
2018-05-27T14:49:37.050Z,5.75
2018-05-27T14:52:04.739Z,6.00
2018-05-27T14:54:32.390Z,5.85
2018-05-27T14:57:00.121Z,5.60
2018-05-27T14:59:27.754Z,5.30
2018-05-27T15:01:56.201Z,5.53
2018-05-27T15:04:23.910Z,5.55
2018-05-27T15:06:53.324Z,5.93
2018-05-27T15:09:24.797Z,5.50
2018-05-27T15:11:52.827Z,5.20
2018-05-27T15:14:20.478Z,6.18
2018-05-27T15:16:48.175Z,5.70
2018-05-27T15:19:15.863Z,5.90
2018-05-27T15:21:43.497Z,6.00
2018-05-27T15:24:12.145Z,5.68
2018-05-27T15:26:40.658Z,5.32
2018-05-27T15:29:08.358Z,5.57
2018-05-27T15:31:36.034Z,5.72
2018-05-27T15:34:03.708Z,5.37
2018-05-27T15:36:31.369Z,5.57
2018-05-27T15:39:00.610Z,5.57
2018-05-27T15:41:28.345Z,5.80
2018-05-27T15:43:58.471Z,5.50
2018-05-27T15:46:26.263Z,5.77
2018-05-27T15:48:53.970Z,5.93
2018-05-27T15:51:21.617Z,5.50
2018-05-27T15:53:50.315Z,5.73
2018-05-27T15:56:18.772Z,5.63
2018-05-27T15:58:46.408Z,5.77
2018-05-27T16:01:14.846Z,5.90
2018-05-27T16:03:42.702Z,5.77
2018-05-27T16:06:11.123Z,5.43
2018-05-27T16:08:40.437Z,6.18
2018-05-27T16:11:08.313Z,5.87
2018-05-27T16:13:36.040Z,6.30
2018-05-27T16:16:04.255Z,5.07
2018-05-27T16:18:32.762Z,5.63
2018-05-27T16:21:01.172Z,5.70
2018-05-27T16:23:28.849Z,5.57
2018-05-27T16:25:57.296Z,5.43
2018-05-27T16:28:24.944Z,5.10
2018-05-27T16:30:53.357Z,5.27
2018-05-27T16:33:21.777Z,5.33
2018-05-27T16:35:49.401Z,5.73
2018-05-27T16:38:17.193Z,5.70
2018-05-27T16:40:44.876Z,5.73
2018-05-27T16:43:12.542Z,5.80
2018-05-27T16:45:40.985Z,5.80
2018-05-27T16:48:08.669Z,5.80
2018-05-27T16:50:36.315Z,6.07
2018-05-27T16:53:04.945Z,6.07
2018-05-27T16:55:32.639Z,5.63
2018-05-27T16:58:00.568Z,5.70
2018-05-27T17:00:28.238Z,6.30
2018-05-27T17:02:55.925Z,6.23
2018-05-27T17:05:23.579Z,5.80
2018-05-27T17:07:51.244Z,6.00
2018-05-27T17:10:18.963Z,6.07
2018-05-27T17:12:46.594Z,6.30
2018-05-27T17:15:35.398Z,6.20
2018-05-27T17:18:06.046Z,5.83
2018-05-27T17:20:33.765Z,6.40
2018-05-27T17:23:01.447Z,6.40
2018-05-27T17:25:29.093Z,6.60
2018-05-27T17:27:56.827Z,6.53
2018-05-27T17:30:24.473Z,6.87
2018-05-27T17:32:52.130Z,6.13
2018-05-27T17:35:20.208Z,6.70
2018-05-27T17:37:47.902Z,6.83
2018-05-27T17:40:18.793Z,6.43
2018-05-27T17:42:46.763Z,6.37
2018-05-27T17:45:18.406Z,6.87
2018-05-27T17:47:47.653Z,6.73
2018-05-27T17:50:15.564Z,6.97
2018-05-27T17:52:43.212Z,6.53
2018-05-27T17:55:14.961Z,6.63
2018-05-27T17:57:42.646Z,6.77
2018-05-27T18:00:10.306Z,6.17
2018-05-27T18:02:38.046Z,6.90
2018-05-27T18:05:09.042Z,6.53
2018-05-27T18:07:36.953Z,6.27
2018-05-27T18:10:04.671Z,6.27
2018-05-27T18:12:32.398Z,6.63
2018-05-27T18:15:06.597Z,6.20
2018-05-27T18:17:34.762Z,6.57
2018-05-27T18:20:02.426Z,6.40
2018-05-27T18:22:30.119Z,6.93
2018-05-27T18:24:57.837Z,6.93
2018-05-27T18:27:25.464Z,7.60
2018-05-27T18:29:53.150Z,6.97
2018-05-27T18:32:21.567Z,7.10
2018-05-27T18:34:49.450Z,6.40
2018-05-27T18:37:17.143Z,6.87
2018-05-27T18:39:45.014Z,7.20
2018-05-27T18:42:12.659Z,7.63
2018-05-27T18:44:41.396Z,7.43
2018-05-27T18:47:09.596Z,7.67
2018-05-27T18:49:42.342Z,7.17
2018-05-27T18:52:16.432Z,7.40
2018-05-27T18:54:44.161Z,7.57
2018-05-27T18:57:11.886Z,7.30
2018-05-27T18:59:42.085Z,7.37
2018-05-27T19:02:10.645Z,7.20
2018-05-27T19:04:38.350Z,7.33
2018-05-27T19:07:06.087Z,7.70
2018-05-27T19:09:33.790Z,7.37
2018-05-27T19:12:01.470Z,8.03
2018-05-27T19:14:29.930Z,7.40
2018-05-27T19:17:03.329Z,7.40
2018-05-27T19:19:30.979Z,7.53
2018-05-27T19:22:15.262Z,6.93
2018-05-27T19:24:42.956Z,6.87
2018-05-27T19:27:10.594Z,7.50
2018-05-27T19:29:39.802Z,7.53
2018-05-27T19:32:19.138Z,6.63
2018-05-27T19:34:46.821Z,7.10
2018-05-27T19:37:14.505Z,7.70
2018-05-27T19:39:42.397Z,7.30
2018-05-27T19:42:10.083Z,7.67
2018-05-27T19:44:37.762Z,7.43
2018-05-27T19:47:22.726Z,6.73
2018-05-27T19:49:50.395Z,7.33
2018-05-27T19:52:18.025Z,7.50
2018-05-27T19:54:46.514Z,7.50
2018-05-27T19:57:14.187Z,7.70
2018-05-27T19:59:41.922Z,7.77
2018-05-27T20:02:09.639Z,7.63
2018-05-27T20:04:37.382Z,7.50
2018-05-27T20:07:05.079Z,7.67
2018-05-27T20:09:33.537Z,7.53
2018-05-27T20:12:01.251Z,7.20
2018-05-27T20:14:28.915Z,7.73
2018-05-27T20:16:56.645Z,7.33
2018-05-27T20:19:30.348Z,7.20
2018-05-27T20:21:58.171Z,7.63
2018-05-27T20:24:25.907Z,7.53
2018-05-27T20:26:53.550Z,8.17
2018-05-27T20:29:22.036Z,7.40
2018-05-27T20:31:49.687Z,7.07
2018-05-27T20:34:18.884Z,7.70
2018-05-27T20:36:47.997Z,7.50
2018-05-27T20:39:16.513Z,7.20
2018-05-27T20:41:45.236Z,7.37
2018-05-27T20:44:12.942Z,7.90
2018-05-27T20:46:40.641Z,7.67
2018-05-27T20:49:08.307Z,7.70
2018-05-27T20:51:35.960Z,6.90
2018-05-27T20:54:12.027Z,7.83
2018-05-27T20:56:39.778Z,7.53
2018-05-27T20:59:09.133Z,7.57
2018-05-27T21:01:36.821Z,7.30
2018-05-27T21:04:06.494Z,7.63
2018-05-27T21:06:34.165Z,7.07
2018-05-27T21:09:01.826Z,7.97
2018-05-27T21:11:29.476Z,8.50
2018-05-27T21:13:57.313Z,8.00
2018-05-27T21:16:39.734Z,8.30
2018-05-27T21:19:07.724Z,7.73
2018-05-27T21:21:35.455Z,7.90
2018-05-27T21:24:03.168Z,7.40
2018-05-27T21:26:32.694Z,8.20
2018-05-27T21:29:00.515Z,8.40
2018-05-27T21:31:29.112Z,7.90
2018-05-27T21:33:57.965Z,8.43
2018-05-27T21:36:25.599Z,7.97
2018-05-27T21:38:53.586Z,7.93
2018-05-27T21:41:21.306Z,7.93
2018-05-27T21:43:49.717Z,7.80
2018-05-27T21:46:18.179Z,8.13
2018-05-27T21:48:45.923Z,8.13
2018-05-27T21:51:13.714Z,8.50
2018-05-27T21:53:41.691Z,9.00
2018-05-27T21:56:09.370Z,8.40
2018-05-27T21:58:37.073Z,8.50
2018-05-27T22:01:04.923Z,8.47
2018-05-27T22:03:32.850Z,8.30
2018-05-27T22:06:01.298Z,9.17
2018-05-27T22:08:28.978Z,9.40
2018-05-27T22:10:56.667Z,9.17
2018-05-27T22:13:24.317Z,8.90
2018-05-27T22:15:52.014Z,8.57
2018-05-27T22:18:20.459Z,9.07
2018-05-27T22:20:48.130Z,8.80
2018-05-27T22:23:15.854Z,8.93
2018-05-27T22:25:43.800Z,9.30
2018-05-27T22:28:12.269Z,9.00
2018-05-27T22:30:39.966Z,9.60
2018-05-27T22:33:11.729Z,9.03
2018-05-27T22:35:40.196Z,9.83
2018-05-27T22:38:07.886Z,9.50
2018-05-27T22:40:35.551Z,9.10
2018-05-27T22:43:03.990Z,9.40
2018-05-27T22:45:31.689Z,9.57
2018-05-27T22:47:59.337Z,9.63
2018-05-27T22:50:27.790Z,9.37
2018-05-27T22:52:55.432Z,8.90
2018-05-27T22:55:23.854Z,10.23
2018-05-27T22:57:51.620Z,9.83
2018-05-27T23:00:20.074Z,9.67
2018-05-27T23:02:47.693Z,9.33
2018-05-27T23:05:16.386Z,10.00
2018-05-27T23:07:44.062Z,10.47
2018-05-27T23:10:11.721Z,10.13
2018-05-27T23:12:39.433Z,10.27
2018-05-27T23:15:10.228Z,9.97
2018-05-27T23:17:37.890Z,10.27
2018-05-27T23:20:05.544Z,9.97
2018-05-27T23:22:33.275Z,10.40
2018-05-27T23:25:00.921Z,9.70
2018-05-27T23:27:28.622Z,10.10
2018-05-27T23:29:56.274Z,9.97
2018-05-27T23:32:24.678Z,10.23
2018-05-27T23:34:53.125Z,9.83
2018-05-27T23:37:20.775Z,9.87
2018-05-27T23:39:49.182Z,9.97
2018-05-27T23:42:17.155Z,10.00
2018-05-27T23:44:45.622Z,10.60
2018-05-27T23:47:13.242Z,10.90
2018-05-27T23:49:40.938Z,10.97
2018-05-27T23:52:09.395Z,10.53
2018-05-27T23:54:37.046Z,10.47
2018-05-27T23:57:04.729Z,10.63
2018-05-27T23:59:32.419Z,10.73
